sensor_id;sensor_type;location;lat;lon;timestamp;P1;durP1;ratioP1;P2;durP2;ratioP2
64387;SDS011;50709;52.648;4.764;2022-07-29T00:01:59;5.32;;;2.40;;
64387;SDS011;50709;52.648;4.764;2022-07-29T00:04:24;4.43;;;2.22;;
64387;SDS011;50709;52.648;4.764;2022-07-29T00:06:49;4.43;;;2.15;;
64387;SDS011;50709;52.648;4.764;2022-07-29T00:09:14;4.82;;;2.30;;
64387;SDS011;50709;52.648;4.764;2022-07-29T00:11:40;3.80;;;2.33;;
64387;SDS011;50709;52.648;4.764;2022-07-29T00:14:05;3.95;;;2.72;;
64387;SDS011;50709;52.648;4.764;2022-07-29T00:16:31;4.30;;;2.30;;
64387;SDS011;50709;52.648;4.764;2022-07-29T00:18:56;5.55;;;2.30;;
64387;SDS011;50709;52.648;4.764;2022-07-29T00:21:21;5.15;;;2.47;;
64387;SDS011;50709;52.648;4.764;2022-07-29T00:23:47;5.65;;;2.67;;
64387;SDS011;50709;52.648;4.764;2022-07-29T00:26:12;4.22;;;2.15;;
64387;SDS011;50709;52.648;4.764;2022-07-29T00:28:37;4.90;;;2.28;;
64387;SDS011;50709;52.648;4.764;2022-07-29T00:31:03;4.82;;;2.30;;
64387;SDS011;50709;52.648;4.764;2022-07-29T00:33:28;4.00;;;2.28;;
64387;SDS011;50709;52.648;4.764;2022-07-29T00:35:54;8.43;;;3.10;;
64387;SDS011;50709;52.648;4.764;2022-07-29T00:38:19;3.90;;;2.15;;
64387;SDS011;50709;52.648;4.764;2022-07-29T00:40:47;3.60;;;1.80;;
64387;SDS011;50709;52.648;4.764;2022-07-29T00:43:13;3.58;;;2.30;;
64387;SDS011;50709;52.648;4.764;2022-07-29T00:45:40;4.28;;;2.30;;
64387;SDS011;50709;52.648;4.764;2022-07-29T00:48:06;3.78;;;1.98;;
64387;SDS011;50709;52.648;4.764;2022-07-29T00:50:34;3.92;;;2.15;;
64387;SDS011;50709;52.648;4.764;2022-07-29T00:53:00;3.67;;;1.80;;
64387;SDS011;50709;52.648;4.764;2022-07-29T00:55:27;3.30;;;2.20;;
64387;SDS011;50709;52.648;4.764;2022-07-29T00:57:52;3.03;;;2.08;;
64387;SDS011;50709;52.648;4.764;2022-07-29T01:00:22;3.65;;;2.35;;
64387;SDS011;50709;52.648;4.764;2022-07-29T01:02:50;3.60;;;2.13;;
64387;SDS011;50709;52.648;4.764;2022-07-29T01:05:16;3.35;;;1.88;;
64387;SDS011;50709;52.648;4.764;2022-07-29T01:07:43;4.30;;;2.20;;
64387;SDS011;50709;52.648;4.764;2022-07-29T01:10:12;4.47;;;2.30;;
64387;SDS011;50709;52.648;4.764;2022-07-29T01:12:39;4.63;;;2.10;;
64387;SDS011;50709;52.648;4.764;2022-07-29T01:15:07;4.25;;;2.30;;
64387;SDS011;50709;52.648;4.764;2022-07-29T01:17:43;4.13;;;2.30;;
64387;SDS011;50709;52.648;4.764;2022-07-29T01:23:17;5.65;;;2.15;;
64387;SDS011;50709;52.648;4.764;2022-07-29T01:31:33;3.72;;;2.22;;
64387;SDS011;50709;52.648;4.764;2022-07-29T01:34:07;4.10;;;2.40;;
64387;SDS011;50709;52.648;4.764;2022-07-29T01:39:43;4.38;;;2.30;;
64387;SDS011;50709;52.648;4.764;2022-07-29T01:42:18;4.57;;;2.53;;
64387;SDS011;50709;52.648;4.764;2022-07-29T01:45:06;4.90;;;2.40;;
64387;SDS011;50709;52.648;4.764;2022-07-29T01:47:40;4.45;;;2.35;;
64387;SDS011;50709;52.648;4.764;2022-07-29T01:50:10;3.65;;;2.58;;
64387;SDS011;50709;52.648;4.764;2022-07-29T01:52:42;4.60;;;2.70;;
64387;SDS011;50709;52.648;4.764;2022-07-29T01:55:13;3.75;;;2.63;;
64387;SDS011;50709;52.648;4.764;2022-07-29T01:57:42;3.35;;;2.28;;
64387;SDS011;50709;52.648;4.764;2022-07-29T02:00:11;4.47;;;2.35;;
64387;SDS011;50709;52.648;4.764;2022-07-29T02:02:38;3.50;;;2.45;;
64387;SDS011;50709;52.648;4.764;2022-07-29T02:05:05;4.03;;;2.70;;
64387;SDS011;50709;52.648;4.764;2022-07-29T02:07:35;3.80;;;2.53;;
64387;SDS011;50709;52.648;4.764;2022-07-29T02:10:03;3.40;;;2.35;;
64387;SDS011;50709;52.648;4.764;2022-07-29T02:12:31;4.85;;;2.67;;
64387;SDS011;50709;52.648;4.764;2022-07-29T02:14:57;3.60;;;2.30;;
64387;SDS011;50709;52.648;4.764;2022-07-29T02:17:31;4.10;;;2.35;;
64387;SDS011;50709;52.648;4.764;2022-07-29T02:20:00;5.00;;;2.92;;
64387;SDS011;50709;52.648;4.764;2022-07-29T02:22:29;5.82;;;2.40;;
64387;SDS011;50709;52.648;4.764;2022-07-29T02:24:56;6.88;;;2.50;;
64387;SDS011;50709;52.648;4.764;2022-07-29T02:27:23;4.50;;;2.65;;
64387;SDS011;50709;52.648;4.764;2022-07-29T02:29:50;4.05;;;2.42;;
64387;SDS011;50709;52.648;4.764;2022-07-29T02:32:17;4.55;;;2.38;;
64387;SDS011;50709;52.648;4.764;2022-07-29T02:34:44;4.65;;;2.40;;
64387;SDS011;50709;52.648;4.764;2022-07-29T02:37:10;4.00;;;2.33;;
64387;SDS011;50709;52.648;4.764;2022-07-29T02:39:39;4.75;;;2.33;;
64387;SDS011;50709;52.648;4.764;2022-07-29T02:42:10;3.13;;;2.25;;
64387;SDS011;50709;52.648;4.764;2022-07-29T02:44:39;5.78;;;2.60;;
64387;SDS011;50709;52.648;4.764;2022-07-29T02:47:22;5.18;;;2.63;;
64387;SDS011;50709;52.648;4.764;2022-07-29T02:52:32;5.10;;;2.60;;
64387;SDS011;50709;52.648;4.764;2022-07-29T02:55:04;5.13;;;2.83;;
64387;SDS011;50709;52.648;4.764;2022-07-29T03:00:19;4.83;;;2.37;;
64387;SDS011;50709;52.648;4.764;2022-07-29T03:02:46;5.97;;;2.88;;
64387;SDS011;50709;52.648;4.764;2022-07-29T03:05:18;5.28;;;2.72;;
64387;SDS011;50709;52.648;4.764;2022-07-29T03:07:45;6.03;;;2.65;;
64387;SDS011;50709;52.648;4.764;2022-07-29T03:10:14;6.28;;;2.80;;
64387;SDS011;50709;52.648;4.764;2022-07-29T03:12:40;4.15;;;2.60;;
64387;SDS011;50709;52.648;4.764;2022-07-29T03:15:06;3.50;;;2.45;;
64387;SDS011;50709;52.648;4.764;2022-07-29T03:17:33;6.70;;;3.53;;
64387;SDS011;50709;52.648;4.764;2022-07-29T03:19:59;5.28;;;2.60;;
64387;SDS011;50709;52.648;4.764;2022-07-29T03:22:25;5.15;;;2.97;;
64387;SDS011;50709;52.648;4.764;2022-07-29T03:24:50;4.72;;;2.72;;
64387;SDS011;50709;52.648;4.764;2022-07-29T03:27:16;4.30;;;2.60;;
64387;SDS011;50709;52.648;4.764;2022-07-29T03:29:41;3.05;;;2.40;;
64387;SDS011;50709;52.648;4.764;2022-07-29T03:32:07;4.43;;;2.85;;
64387;SDS011;50709;52.648;4.764;2022-07-29T03:34:33;4.93;;;2.95;;
64387;SDS011;50709;52.648;4.764;2022-07-29T03:36:58;3.97;;;2.72;;
64387;SDS011;50709;52.648;4.764;2022-07-29T03:39:24;4.22;;;2.92;;
64387;SDS011;50709;52.648;4.764;2022-07-29T03:41:55;5.07;;;2.72;;
64387;SDS011;50709;52.648;4.764;2022-07-29T03:44:22;5.07;;;2.85;;
64387;SDS011;50709;52.648;4.764;2022-07-29T03:46:49;4.07;;;2.72;;
64387;SDS011;50709;52.648;4.764;2022-07-29T03:49:16;4.75;;;2.75;;
64387;SDS011;50709;52.648;4.764;2022-07-29T03:51:43;6.28;;;2.70;;
64387;SDS011;50709;52.648;4.764;2022-07-29T03:54:09;4.72;;;2.67;;
64387;SDS011;50709;52.648;4.764;2022-07-29T03:56:37;4.00;;;2.50;;
64387;SDS011;50709;52.648;4.764;2022-07-29T03:59:04;4.80;;;2.80;;
64387;SDS011;50709;52.648;4.764;2022-07-29T04:01:32;3.25;;;2.40;;
64387;SDS011;50709;52.648;4.764;2022-07-29T04:03:59;5.03;;;3.00;;
64387;SDS011;50709;52.648;4.764;2022-07-29T04:06:25;3.60;;;2.63;;
64387;SDS011;50709;52.648;4.764;2022-07-29T04:08:51;6.32;;;2.60;;
64387;SDS011;50709;52.648;4.764;2022-07-29T04:11:16;4.75;;;2.63;;
64387;SDS011;50709;52.648;4.764;2022-07-29T04:13:42;6.43;;;3.25;;
64387;SDS011;50709;52.648;4.764;2022-07-29T04:16:07;4.32;;;2.70;;
64387;SDS011;50709;52.648;4.764;2022-07-29T04:18:32;5.47;;;3.08;;
64387;SDS011;50709;52.648;4.764;2022-07-29T04:20:58;5.80;;;2.97;;
64387;SDS011;50709;52.648;4.764;2022-07-29T04:23:25;7.57;;;3.70;;
64387;SDS011;50709;52.648;4.764;2022-07-29T04:25:51;8.50;;;3.85;;
64387;SDS011;50709;52.648;4.764;2022-07-29T04:28:17;9.85;;;4.00;;
64387;SDS011;50709;52.648;4.764;2022-07-29T04:30:42;9.07;;;4.10;;
64387;SDS011;50709;52.648;4.764;2022-07-29T04:33:07;8.57;;;4.20;;
64387;SDS011;50709;52.648;4.764;2022-07-29T04:35:34;6.03;;;3.47;;
64387;SDS011;50709;52.648;4.764;2022-07-29T04:38:01;5.97;;;3.45;;
64387;SDS011;50709;52.648;4.764;2022-07-29T04:40:27;5.53;;;3.22;;
64387;SDS011;50709;52.648;4.764;2022-07-29T04:42:54;6.30;;;3.50;;
64387;SDS011;50709;52.648;4.764;2022-07-29T04:45:19;7.13;;;4.35;;
64387;SDS011;50709;52.648;4.764;2022-07-29T04:47:44;6.10;;;3.25;;
64387;SDS011;50709;52.648;4.764;2022-07-29T04:50:10;8.45;;;4.15;;
64387;SDS011;50709;52.648;4.764;2022-07-29T04:52:35;6.80;;;3.60;;
64387;SDS011;50709;52.648;4.764;2022-07-29T04:55:02;4.78;;;3.28;;
64387;SDS011;50709;52.648;4.764;2022-07-29T04:57:28;6.03;;;3.20;;
64387;SDS011;50709;52.648;4.764;2022-07-29T04:59:53;4.80;;;3.30;;
64387;SDS011;50709;52.648;4.764;2022-07-29T05:02:18;5.78;;;3.17;;
64387;SDS011;50709;52.648;4.764;2022-07-29T05:04:44;5.75;;;3.03;;
64387;SDS011;50709;52.648;4.764;2022-07-29T05:07:09;4.70;;;2.90;;
64387;SDS011;50709;52.648;4.764;2022-07-29T05:09:34;6.75;;;3.10;;
64387;SDS011;50709;52.648;4.764;2022-07-29T05:12:00;4.70;;;3.03;;
64387;SDS011;50709;52.648;4.764;2022-07-29T05:14:25;5.30;;;2.97;;
64387;SDS011;50709;52.648;4.764;2022-07-29T05:16:51;4.28;;;2.80;;
64387;SDS011;50709;52.648;4.764;2022-07-29T05:19:16;5.63;;;3.28;;
64387;SDS011;50709;52.648;4.764;2022-07-29T05:21:42;5.05;;;3.00;;
64387;SDS011;50709;52.648;4.764;2022-07-29T05:24:09;4.93;;;3.20;;
64387;SDS011;50709;52.648;4.764;2022-07-29T05:26:35;5.65;;;3.60;;
64387;SDS011;50709;52.648;4.764;2022-07-29T05:29:00;7.13;;;2.90;;
64387;SDS011;50709;52.648;4.764;2022-07-29T05:31:25;6.60;;;3.78;;
64387;SDS011;50709;52.648;4.764;2022-07-29T05:33:51;7.20;;;3.80;;
64387;SDS011;50709;52.648;4.764;2022-07-29T05:36:16;6.07;;;3.72;;
64387;SDS011;50709;52.648;4.764;2022-07-29T05:38:41;7.03;;;3.80;;
64387;SDS011;50709;52.648;4.764;2022-07-29T05:41:06;5.63;;;3.10;;
64387;SDS011;50709;52.648;4.764;2022-07-29T05:43:32;5.95;;;3.30;;
64387;SDS011;50709;52.648;4.764;2022-07-29T05:45:57;7.75;;;3.42;;
64387;SDS011;50709;52.648;4.764;2022-07-29T05:48:23;7.10;;;3.17;;
64387;SDS011;50709;52.648;4.764;2022-07-29T05:50:49;4.75;;;3.13;;
64387;SDS011;50709;52.648;4.764;2022-07-29T05:53:14;5.35;;;3.10;;
64387;SDS011;50709;52.648;4.764;2022-07-29T05:55:40;6.13;;;2.90;;
64387;SDS011;50709;52.648;4.764;2022-07-29T05:58:05;4.45;;;2.55;;
64387;SDS011;50709;52.648;4.764;2022-07-29T06:00:30;6.65;;;3.05;;
64387;SDS011;50709;52.648;4.764;2022-07-29T06:02:56;4.85;;;2.50;;
64387;SDS011;50709;52.648;4.764;2022-07-29T06:05:21;4.13;;;2.53;;
64387;SDS011;50709;52.648;4.764;2022-07-29T06:07:47;4.25;;;2.72;;
64387;SDS011;50709;52.648;4.764;2022-07-29T06:10:12;4.55;;;2.70;;
64387;SDS011;50709;52.648;4.764;2022-07-29T06:12:38;5.65;;;2.50;;
64387;SDS011;50709;52.648;4.764;2022-07-29T06:15:03;4.57;;;2.70;;
64387;SDS011;50709;52.648;4.764;2022-07-29T06:17:29;4.65;;;2.65;;
64387;SDS011;50709;52.648;4.764;2022-07-29T06:19:54;5.68;;;2.67;;
64387;SDS011;50709;52.648;4.764;2022-07-29T06:22:19;5.72;;;2.70;;
64387;SDS011;50709;52.648;4.764;2022-07-29T06:24:45;5.53;;;2.70;;
64387;SDS011;50709;52.648;4.764;2022-07-29T06:27:10;6.07;;;2.72;;
64387;SDS011;50709;52.648;4.764;2022-07-29T06:29:36;4.13;;;2.50;;
64387;SDS011;50709;52.648;4.764;2022-07-29T06:32:01;6.85;;;2.78;;
64387;SDS011;50709;52.648;4.764;2022-07-29T06:34:27;3.80;;;2.60;;
64387;SDS011;50709;52.648;4.764;2022-07-29T06:36:52;3.97;;;2.60;;
64387;SDS011;50709;52.648;4.764;2022-07-29T06:39:18;5.43;;;2.50;;
64387;SDS011;50709;52.648;4.764;2022-07-29T06:41:46;4.15;;;2.55;;
64387;SDS011;50709;52.648;4.764;2022-07-29T06:44:13;4.60;;;2.58;;
64387;SDS011;50709;52.648;4.764;2022-07-29T06:46:38;5.15;;;3.00;;
64387;SDS011;50709;52.648;4.764;2022-07-29T06:49:04;5.32;;;2.85;;
64387;SDS011;50709;52.648;4.764;2022-07-29T06:51:29;4.72;;;2.60;;
64387;SDS011;50709;52.648;4.764;2022-07-29T06:53:55;8.07;;;3.33;;
64387;SDS011;50709;52.648;4.764;2022-07-29T06:56:22;3.67;;;2.55;;
64387;SDS011;50709;52.648;4.764;2022-07-29T06:58:47;5.45;;;2.90;;
64387;SDS011;50709;52.648;4.764;2022-07-29T07:01:12;5.03;;;2.95;;
64387;SDS011;50709;52.648;4.764;2022-07-29T07:03:38;7.22;;;3.15;;
64387;SDS011;50709;52.648;4.764;2022-07-29T07:06:03;5.13;;;2.58;;
64387;SDS011;50709;52.648;4.764;2022-07-29T07:08:29;3.75;;;2.53;;
64387;SDS011;50709;52.648;4.764;2022-07-29T07:10:54;6.95;;;3.17;;
64387;SDS011;50709;52.648;4.764;2022-07-29T07:13:20;4.47;;;2.55;;
64387;SDS011;50709;52.648;4.764;2022-07-29T07:15:45;6.50;;;2.63;;
64387;SDS011;50709;52.648;4.764;2022-07-29T07:18:13;5.30;;;3.00;;
64387;SDS011;50709;52.648;4.764;2022-07-29T07:20:39;4.85;;;2.72;;
64387;SDS011;50709;52.648;4.764;2022-07-29T07:23:05;5.00;;;2.67;;
64387;SDS011;50709;52.648;4.764;2022-07-29T07:25:31;5.90;;;2.50;;
64387;SDS011;50709;52.648;4.764;2022-07-29T07:27:56;5.05;;;2.88;;
64387;SDS011;50709;52.648;4.764;2022-07-29T07:30:22;7.43;;;3.03;;
64387;SDS011;50709;52.648;4.764;2022-07-29T07:32:49;5.32;;;3.00;;
64387;SDS011;50709;52.648;4.764;2022-07-29T07:35:15;4.68;;;2.58;;
64387;SDS011;50709;52.648;4.764;2022-07-29T07:37:40;5.28;;;2.70;;
64387;SDS011;50709;52.648;4.764;2022-07-29T07:40:06;5.50;;;2.50;;
64387;SDS011;50709;52.648;4.764;2022-07-29T07:42:34;6.68;;;3.38;;
64387;SDS011;50709;52.648;4.764;2022-07-29T07:44:59;3.40;;;2.30;;
64387;SDS011;50709;52.648;4.764;2022-07-29T07:47:25;5.63;;;2.70;;
64387;SDS011;50709;52.648;4.764;2022-07-29T07:49:50;5.75;;;2.95;;
64387;SDS011;50709;52.648;4.764;2022-07-29T07:52:16;4.80;;;2.63;;
64387;SDS011;50709;52.648;4.764;2022-07-29T07:54:42;5.10;;;3.10;;
64387;SDS011;50709;52.648;4.764;2022-07-29T07:57:09;5.85;;;2.60;;
64387;SDS011;50709;52.648;4.764;2022-07-29T07:59:38;4.95;;;2.50;;
64387;SDS011;50709;52.648;4.764;2022-07-29T08:02:03;6.43;;;2.60;;
64387;SDS011;50709;52.648;4.764;2022-07-29T08:04:29;4.60;;;2.55;;
64387;SDS011;50709;52.648;4.764;2022-07-29T08:06:55;6.05;;;2.70;;
64387;SDS011;50709;52.648;4.764;2022-07-29T08:09:22;5.32;;;3.92;;
64387;SDS011;50709;52.648;4.764;2022-07-29T08:11:48;5.00;;;3.00;;
64387;SDS011;50709;52.648;4.764;2022-07-29T08:14:13;3.63;;;2.42;;
64387;SDS011;50709;52.648;4.764;2022-07-29T08:16:39;7.35;;;2.97;;
64387;SDS011;50709;52.648;4.764;2022-07-29T08:19:05;5.88;;;2.78;;
64387;SDS011;50709;52.648;4.764;2022-07-29T08:21:31;6.28;;;2.90;;
64387;SDS011;50709;52.648;4.764;2022-07-29T08:23:56;5.68;;;2.80;;
64387;SDS011;50709;52.648;4.764;2022-07-29T08:26:42;5.22;;;2.95;;
64387;SDS011;50709;52.648;4.764;2022-07-29T08:29:08;5.85;;;3.15;;
64387;SDS011;50709;52.648;4.764;2022-07-29T08:31:34;6.75;;;3.50;;
64387;SDS011;50709;52.648;4.764;2022-07-29T08:33:59;5.95;;;2.92;;
64387;SDS011;50709;52.648;4.764;2022-07-29T08:36:25;4.65;;;2.78;;
64387;SDS011;50709;52.648;4.764;2022-07-29T08:38:51;6.00;;;3.85;;
64387;SDS011;50709;52.648;4.764;2022-07-29T08:41:20;5.53;;;3.10;;
64387;SDS011;50709;52.648;4.764;2022-07-29T08:43:47;6.35;;;2.88;;
64387;SDS011;50709;52.648;4.764;2022-07-29T08:46:13;6.57;;;3.00;;
64387;SDS011;50709;52.648;4.764;2022-07-29T08:48:39;6.43;;;3.45;;
64387;SDS011;50709;52.648;4.764;2022-07-29T08:51:06;8.68;;;3.35;;
64387;SDS011;50709;52.648;4.764;2022-07-29T08:53:32;4.45;;;3.03;;
64387;SDS011;50709;52.648;4.764;2022-07-29T08:55:58;4.53;;;2.83;;
64387;SDS011;50709;52.648;4.764;2022-07-29T08:58:25;3.70;;;2.60;;
64387;SDS011;50709;52.648;4.764;2022-07-29T09:00:52;5.25;;;3.03;;
64387;SDS011;50709;52.648;4.764;2022-07-29T09:03:20;9.50;;;2.72;;
64387;SDS011;50709;52.648;4.764;2022-07-29T09:05:49;6.60;;;3.00;;
64387;SDS011;50709;52.648;4.764;2022-07-29T09:08:16;5.97;;;3.10;;
64387;SDS011;50709;52.648;4.764;2022-07-29T09:10:42;5.47;;;2.92;;
64387;SDS011;50709;52.648;4.764;2022-07-29T09:13:08;4.80;;;2.83;;
64387;SDS011;50709;52.648;4.764;2022-07-29T09:15:34;5.25;;;3.22;;
64387;SDS011;50709;52.648;4.764;2022-07-29T09:17:59;6.03;;;3.00;;
64387;SDS011;50709;52.648;4.764;2022-07-29T09:20:25;5.35;;;2.88;;
64387;SDS011;50709;52.648;4.764;2022-07-29T09:22:52;7.55;;;2.97;;
64387;SDS011;50709;52.648;4.764;2022-07-29T09:25:37;4.78;;;2.80;;
64387;SDS011;50709;52.648;4.764;2022-07-29T09:28:08;4.68;;;2.78;;
64387;SDS011;50709;52.648;4.764;2022-07-29T09:30:35;6.72;;;2.83;;
64387;SDS011;50709;52.648;4.764;2022-07-29T09:33:14;3.95;;;2.60;;
64387;SDS011;50709;52.648;4.764;2022-07-29T09:35:40;4.47;;;2.80;;
64387;SDS011;50709;52.648;4.764;2022-07-29T09:38:12;5.30;;;3.05;;
64387;SDS011;50709;52.648;4.764;2022-07-29T09:40:39;5.15;;;3.17;;
64387;SDS011;50709;52.648;4.764;2022-07-29T09:43:12;6.22;;;3.13;;
64387;SDS011;50709;52.648;4.764;2022-07-29T09:45:38;6.72;;;3.13;;
64387;SDS011;50709;52.648;4.764;2022-07-29T09:48:14;6.72;;;2.90;;
64387;SDS011;50709;52.648;4.764;2022-07-29T09:50:42;9.18;;;3.13;;
64387;SDS011;50709;52.648;4.764;2022-07-29T09:53:09;3.92;;;2.70;;
64387;SDS011;50709;52.648;4.764;2022-07-29T09:55:48;4.10;;;2.90;;
64387;SDS011;50709;52.648;4.764;2022-07-29T09:58:17;5.40;;;3.20;;
64387;SDS011;50709;52.648;4.764;2022-07-29T10:00:45;4.15;;;2.58;;
64387;SDS011;50709;52.648;4.764;2022-07-29T10:03:11;6.30;;;3.03;;
64387;SDS011;50709;52.648;4.764;2022-07-29T10:05:37;6.75;;;2.53;;
64387;SDS011;50709;52.648;4.764;2022-07-29T10:08:04;7.43;;;3.85;;
64387;SDS011;50709;52.648;4.764;2022-07-29T10:10:31;3.80;;;2.40;;
64387;SDS011;50709;52.648;4.764;2022-07-29T10:13:02;6.28;;;2.75;;
64387;SDS011;50709;52.648;4.764;2022-07-29T10:15:31;4.40;;;2.38;;
64387;SDS011;50709;52.648;4.764;2022-07-29T10:18:02;5.35;;;2.70;;
64387;SDS011;50709;52.648;4.764;2022-07-29T10:20:27;7.13;;;3.10;;
64387;SDS011;50709;52.648;4.764;2022-07-29T10:22:53;5.20;;;2.72;;
64387;SDS011;50709;52.648;4.764;2022-07-29T10:25:20;6.10;;;2.85;;
64387;SDS011;50709;52.648;4.764;2022-07-29T10:27:47;7.68;;;2.90;;
64387;SDS011;50709;52.648;4.764;2022-07-29T10:30:14;6.28;;;2.70;;
64387;SDS011;50709;52.648;4.764;2022-07-29T10:38:20;4.50;;;2.83;;
64387;SDS011;50709;52.648;4.764;2022-07-29T10:41:10;6.78;;;2.58;;
64387;SDS011;50709;52.648;4.764;2022-07-29T10:46:35;5.25;;;3.00;;
64387;SDS011;50709;52.648;4.764;2022-07-29T10:49:05;5.30;;;2.80;;
64387;SDS011;50709;52.648;4.764;2022-07-29T10:54:17;6.43;;;2.72;;
64387;SDS011;50709;52.648;4.764;2022-07-29T10:56:43;6.35;;;2.88;;
64387;SDS011;50709;52.648;4.764;2022-07-29T11:01:43;5.40;;;3.10;;
64387;SDS011;50709;52.648;4.764;2022-07-29T11:04:08;5.30;;;2.90;;
64387;SDS011;50709;52.648;4.764;2022-07-29T11:09:30;4.88;;;2.72;;
64387;SDS011;50709;52.648;4.764;2022-07-29T11:11:56;5.95;;;3.08;;
64387;SDS011;50709;52.648;4.764;2022-07-29T11:17:19;4.18;;;2.40;;
64387;SDS011;50709;52.648;4.764;2022-07-29T11:19:45;4.35;;;2.35;;
64387;SDS011;50709;52.648;4.764;2022-07-29T11:22:10;8.88;;;3.20;;
64387;SDS011;50709;52.648;4.764;2022-07-29T11:24:36;6.28;;;3.40;;
64387;SDS011;50709;52.648;4.764;2022-07-29T11:27:15;5.97;;;2.90;;
64387;SDS011;50709;52.648;4.764;2022-07-29T11:29:48;5.13;;;2.80;;
64387;SDS011;50709;52.648;4.764;2022-07-29T11:32:16;6.13;;;3.30;;
64387;SDS011;50709;52.648;4.764;2022-07-29T11:34:44;5.60;;;2.97;;
64387;SDS011;50709;52.648;4.764;2022-07-29T11:39:38;7.85;;;3.70;;
64387;SDS011;50709;52.648;4.764;2022-07-29T11:47:23;6.22;;;2.95;;
64387;SDS011;50709;52.648;4.764;2022-07-29T11:49:50;7.32;;;2.90;;
64387;SDS011;50709;52.648;4.764;2022-07-29T11:52:17;6.85;;;2.78;;
64387;SDS011;50709;52.648;4.764;2022-07-29T11:54:43;9.18;;;2.72;;
64387;SDS011;50709;52.648;4.764;2022-07-29T11:57:10;5.70;;;3.13;;
64387;SDS011;50709;52.648;4.764;2022-07-29T11:59:39;5.15;;;2.80;;
64387;SDS011;50709;52.648;4.764;2022-07-29T12:02:06;7.65;;;3.90;;
64387;SDS011;50709;52.648;4.764;2022-07-29T12:04:32;5.97;;;3.38;;
64387;SDS011;50709;52.648;4.764;2022-07-29T12:06:57;6.97;;;2.72;;
64387;SDS011;50709;52.648;4.764;2022-07-29T12:09:23;8.65;;;2.72;;
64387;SDS011;50709;52.648;4.764;2022-07-29T12:11:48;8.85;;;2.33;;
64387;SDS011;50709;52.648;4.764;2022-07-29T12:14:30;8.43;;;2.80;;
64387;SDS011;50709;52.648;4.764;2022-07-29T12:16:58;6.80;;;2.78;;
64387;SDS011;50709;52.648;4.764;2022-07-29T12:19:24;7.60;;;3.38;;
64387;SDS011;50709;52.648;4.764;2022-07-29T12:21:52;7.65;;;2.78;;
64387;SDS011;50709;52.648;4.764;2022-07-29T12:24:19;6.53;;;3.00;;
64387;SDS011;50709;52.648;4.764;2022-07-29T12:26:49;5.38;;;2.92;;
64387;SDS011;50709;52.648;4.764;2022-07-29T12:29:17;7.78;;;2.92;;
64387;SDS011;50709;52.648;4.764;2022-07-29T12:31:43;7.63;;;2.60;;
64387;SDS011;50709;52.648;4.764;2022-07-29T12:34:13;5.65;;;2.47;;
64387;SDS011;50709;52.648;4.764;2022-07-29T12:36:42;10.55;;;3.67;;
64387;SDS011;50709;52.648;4.764;2022-07-29T12:39:08;4.72;;;2.58;;
64387;SDS011;50709;52.648;4.764;2022-07-29T12:41:35;6.10;;;3.17;;
64387;SDS011;50709;52.648;4.764;2022-07-29T12:44:01;7.65;;;3.63;;
64387;SDS011;50709;52.648;4.764;2022-07-29T12:46:26;5.43;;;2.78;;
64387;SDS011;50709;52.648;4.764;2022-07-29T12:48:52;6.15;;;3.38;;
64387;SDS011;50709;52.648;4.764;2022-07-29T12:51:29;7.70;;;3.53;;
64387;SDS011;50709;52.648;4.764;2022-07-29T12:54:05;7.03;;;3.40;;
64387;SDS011;50709;52.648;4.764;2022-07-29T12:56:38;7.13;;;3.60;;
64387;SDS011;50709;52.648;4.764;2022-07-29T13:01:44;6.38;;;3.50;;
64387;SDS011;50709;52.648;4.764;2022-07-29T13:04:23;12.95;;;5.10;;
64387;SDS011;50709;52.648;4.764;2022-07-29T13:06:49;8.25;;;3.50;;
64387;SDS011;50709;52.648;4.764;2022-07-29T13:09:35;9.80;;;4.05;;
64387;SDS011;50709;52.648;4.764;2022-07-29T13:12:08;7.22;;;3.92;;
64387;SDS011;50709;52.648;4.764;2022-07-29T13:14:36;8.40;;;3.50;;
64387;SDS011;50709;52.648;4.764;2022-07-29T13:19:33;7.90;;;2.92;;
64387;SDS011;50709;52.648;4.764;2022-07-29T13:22:01;6.05;;;3.35;;
64387;SDS011;50709;52.648;4.764;2022-07-29T13:24:26;7.07;;;3.83;;
64387;SDS011;50709;52.648;4.764;2022-07-29T13:26:51;6.47;;;3.50;;
64387;SDS011;50709;52.648;4.764;2022-07-29T13:29:17;9.05;;;3.70;;
64387;SDS011;50709;52.648;4.764;2022-07-29T13:31:43;10.75;;;3.58;;
64387;SDS011;50709;52.648;4.764;2022-07-29T13:34:08;8.82;;;3.13;;
64387;SDS011;50709;52.648;4.764;2022-07-29T13:36:34;7.30;;;3.38;;
64387;SDS011;50709;52.648;4.764;2022-07-29T13:38:59;8.90;;;3.60;;
64387;SDS011;50709;52.648;4.764;2022-07-29T13:41:26;6.75;;;3.30;;
64387;SDS011;50709;52.648;4.764;2022-07-29T13:43:51;7.35;;;3.50;;
64387;SDS011;50709;52.648;4.764;2022-07-29T13:46:16;7.95;;;3.45;;
64387;SDS011;50709;52.648;4.764;2022-07-29T13:48:42;7.40;;;3.40;;
64387;SDS011;50709;52.648;4.764;2022-07-29T13:51:07;9.87;;;3.90;;
64387;SDS011;50709;52.648;4.764;2022-07-29T13:53:32;9.10;;;3.30;;
64387;SDS011;50709;52.648;4.764;2022-07-29T13:55:58;9.35;;;3.55;;
64387;SDS011;50709;52.648;4.764;2022-07-29T13:58:23;9.98;;;3.40;;
64387;SDS011;50709;52.648;4.764;2022-07-29T14:00:49;11.10;;;3.47;;
64387;SDS011;50709;52.648;4.764;2022-07-29T14:03:14;9.60;;;3.80;;
64387;SDS011;50709;52.648;4.764;2022-07-29T14:05:40;4.72;;;3.05;;
64387;SDS011;50709;52.648;4.764;2022-07-29T14:08:05;8.10;;;3.17;;
64387;SDS011;50709;52.648;4.764;2022-07-29T14:10:30;6.90;;;3.05;;
64387;SDS011;50709;52.648;4.764;2022-07-29T14:12:56;9.63;;;3.47;;
64387;SDS011;50709;52.648;4.764;2022-07-29T14:15:21;6.03;;;3.13;;
64387;SDS011;50709;52.648;4.764;2022-07-29T14:17:46;7.22;;;3.50;;
64387;SDS011;50709;52.648;4.764;2022-07-29T14:20:12;7.93;;;3.53;;
64387;SDS011;50709;52.648;4.764;2022-07-29T14:22:37;6.20;;;3.20;;
64387;SDS011;50709;52.648;4.764;2022-07-29T14:25:02;8.85;;;3.30;;
64387;SDS011;50709;52.648;4.764;2022-07-29T14:27:28;6.13;;;3.90;;
64387;SDS011;50709;52.648;4.764;2022-07-29T14:29:53;6.50;;;3.58;;
64387;SDS011;50709;52.648;4.764;2022-07-29T14:32:19;6.13;;;3.35;;
64387;SDS011;50709;52.648;4.764;2022-07-29T14:34:44;5.53;;;3.17;;
64387;SDS011;50709;52.648;4.764;2022-07-29T14:37:09;6.13;;;3.20;;
64387;SDS011;50709;52.648;4.764;2022-07-29T14:39:35;5.80;;;3.45;;
64387;SDS011;50709;52.648;4.764;2022-07-29T14:42:03;8.00;;;3.33;;
64387;SDS011;50709;52.648;4.764;2022-07-29T14:44:29;7.32;;;3.33;;
64387;SDS011;50709;52.648;4.764;2022-07-29T14:46:56;9.82;;;3.83;;
64387;SDS011;50709;52.648;4.764;2022-07-29T14:49:24;9.07;;;3.80;;
64387;SDS011;50709;52.648;4.764;2022-07-29T14:51:49;8.82;;;3.42;;
64387;SDS011;50709;52.648;4.764;2022-07-29T14:54:15;6.40;;;3.38;;
64387;SDS011;50709;52.648;4.764;2022-07-29T14:56:40;5.22;;;2.88;;
64387;SDS011;50709;52.648;4.764;2022-07-29T14:59:05;6.80;;;3.40;;
64387;SDS011;50709;52.648;4.764;2022-07-29T15:01:31;7.80;;;3.72;;
64387;SDS011;50709;52.648;4.764;2022-07-29T15:03:56;6.97;;;3.30;;
64387;SDS011;50709;52.648;4.764;2022-07-29T15:06:22;6.20;;;3.20;;
64387;SDS011;50709;52.648;4.764;2022-07-29T15:08:47;9.80;;;3.72;;
64387;SDS011;50709;52.648;4.764;2022-07-29T15:11:12;8.10;;;3.53;;
64387;SDS011;50709;52.648;4.764;2022-07-29T15:13:38;9.73;;;3.47;;
64387;SDS011;50709;52.648;4.764;2022-07-29T15:16:04;6.95;;;3.35;;
64387;SDS011;50709;52.648;4.764;2022-07-29T15:18:30;7.03;;;3.00;;
64387;SDS011;50709;52.648;4.764;2022-07-29T15:20:55;6.65;;;3.50;;
64387;SDS011;50709;52.648;4.764;2022-07-29T15:23:20;7.18;;;3.60;;
64387;SDS011;50709;52.648;4.764;2022-07-29T15:25:46;6.75;;;3.53;;
64387;SDS011;50709;52.648;4.764;2022-07-29T15:28:11;7.32;;;3.88;;
64387;SDS011;50709;52.648;4.764;2022-07-29T15:30:37;6.75;;;4.10;;
64387;SDS011;50709;52.648;4.764;2022-07-29T15:33:05;6.75;;;3.10;;
64387;SDS011;50709;52.648;4.764;2022-07-29T15:35:32;8.48;;;3.70;;
64387;SDS011;50709;52.648;4.764;2022-07-29T15:37:57;6.78;;;3.38;;